createdAt,value
2022-08-26T05:03:10.694Z,19.93
2022-08-26T05:05:52.232Z,20.01
2022-08-26T05:08:23.250Z,20.16
2022-08-26T05:10:55.810Z,20.33
2022-08-26T05:13:27.980Z,20.48
2022-08-26T05:16:04.923Z,20.50
2022-08-26T05:18:35.004Z,20.57
2022-08-26T05:21:04.050Z,20.77
2022-08-26T05:23:35.878Z,20.99
2022-08-26T05:26:08.690Z,21.22
2022-08-26T05:28:38.663Z,21.31
2022-08-26T05:31:19.250Z,21.36
2022-08-26T05:33:47.504Z,21.31
2022-08-26T05:36:19.987Z,21.41
2022-08-26T05:38:49.796Z,21.57
2022-08-26T05:41:34.398Z,21.66
2022-08-26T05:44:12.556Z,21.79
2022-08-26T05:46:44.639Z,21.89
2022-08-26T05:49:16.220Z,22.06
2022-08-26T05:54:58.911Z,22.20
2022-08-26T05:57:30.471Z,22.33
2022-08-26T05:59:59.694Z,22.41
2022-08-26T06:02:30.132Z,22.54
2022-08-26T06:04:59.298Z,22.55
2022-08-26T06:07:48.352Z,22.65
2022-08-26T06:10:33.502Z,22.74
2022-08-26T06:13:11.612Z,22.76
2022-08-26T06:15:47.473Z,22.77
2022-08-26T06:18:22.332Z,22.77
2022-08-26T06:20:58.027Z,22.83
2022-08-26T06:23:52.473Z,22.87
2022-08-26T06:26:21.671Z,22.90
2022-08-26T06:28:51.344Z,23.00
2022-08-26T06:31:21.825Z,23.00
2022-08-26T06:33:52.300Z,23.15
2022-08-26T06:36:26.064Z,23.32
2022-08-26T06:39:08.242Z,23.41
2022-08-26T06:41:43.280Z,23.55
2022-08-26T06:44:15.540Z,23.64
2022-08-26T06:46:46.212Z,23.73
2022-08-26T06:49:25.805Z,23.84
2022-08-26T06:52:00.761Z,23.83
2022-08-26T06:54:32.022Z,23.78
2022-08-26T06:57:01.520Z,23.79
2022-08-26T06:59:31.944Z,23.81
2022-08-26T07:02:08.605Z,23.77
2022-08-26T07:04:43.021Z,23.76
2022-08-26T07:07:16.961Z,23.80
2022-08-26T07:09:47.456Z,23.81
2022-08-26T07:12:21.687Z,23.97
2022-08-26T07:14:50.884Z,24.07
2022-08-26T07:17:20.439Z,24.22
2022-08-26T07:19:49.680Z,24.33
2022-08-26T07:22:19.321Z,24.40
2022-08-26T07:24:48.500Z,24.50
2022-08-26T07:27:18.924Z,24.56
2022-08-26T07:29:48.124Z,24.61
2022-08-26T07:32:22.992Z,24.53
2022-08-26T07:34:52.251Z,24.57
2022-08-26T07:37:21.295Z,24.69
2022-08-26T07:39:52.131Z,24.81
2022-08-26T07:42:21.814Z,24.92
2022-08-26T07:44:51.446Z,25.04
2022-08-26T07:47:25.477Z,25.16
2022-08-26T07:49:58.649Z,25.16
2022-08-26T07:52:30.726Z,25.20
2022-08-26T07:55:02.992Z,25.16
2022-08-26T07:57:32.923Z,25.18
2022-08-26T08:00:18.548Z,25.24
2022-08-26T08:02:49.383Z,25.37
2022-08-26T08:05:23.240Z,25.51
2022-08-26T08:08:19.726Z,25.59
2022-08-26T08:10:57.527Z,25.71
2022-08-26T08:13:29.683Z,25.82
2022-08-26T08:15:58.804Z,25.90
2022-08-26T08:18:29.341Z,25.93
2022-08-26T08:21:10.925Z,25.99
2022-08-26T08:23:54.342Z,26.05
2022-08-26T08:26:25.663Z,26.18
2022-08-26T08:28:57.913Z,26.32
2022-08-26T08:34:29.611Z,26.42
2022-08-26T08:36:59.241Z,26.49
2022-08-26T08:39:32.575Z,26.51
2022-08-26T08:42:31.550Z,26.53
2022-08-26T08:45:14.453Z,26.57
2022-08-26T08:48:01.179Z,26.52
2022-08-26T08:50:36.605Z,26.58
2022-08-26T08:53:32.445Z,26.62
2022-08-26T08:56:24.358Z,26.68
2022-08-26T08:59:20.281Z,26.79
2022-08-26T09:01:52.458Z,26.85
2022-08-26T09:05:01.194Z,26.94
2022-08-26T09:07:43.786Z,27.00
2022-08-26T09:10:29.167Z,27.02
2022-08-26T09:13:00.598Z,27.07
2022-08-26T09:16:01.462Z,27.18
2022-08-26T09:19:06.007Z,27.27
2022-08-26T09:21:35.497Z,27.33
2022-08-26T09:24:05.165Z,27.41
2022-08-26T09:26:40.058Z,27.47
2022-08-26T09:29:34.809Z,27.50
2022-08-26T09:32:26.100Z,27.53
2022-08-26T09:35:07.970Z,27.69
2022-08-26T09:40:35.345Z,27.95
2022-08-26T09:43:22.993Z,27.99
2022-08-26T09:46:28.431Z,27.99
2022-08-26T09:48:57.519Z,28.00
2022-08-26T09:51:32.747Z,28.13
2022-08-26T09:54:08.205Z,28.25
2022-08-26T09:56:40.111Z,28.32
2022-08-26T09:59:12.703Z,28.34
2022-08-26T10:01:45.013Z,28.30
2022-08-26T10:04:31.237Z,28.19
2022-08-26T10:07:10.897Z,28.28
2022-08-26T10:09:44.958Z,28.37
2022-08-26T10:12:22.405Z,28.50
2022-08-26T10:15:04.442Z,28.56
2022-08-26T10:18:01.722Z,28.68
2022-08-26T10:20:38.874Z,28.81
2022-08-26T10:23:19.945Z,28.94
2022-08-26T10:26:03.514Z,29.03
2022-08-26T10:28:54.501Z,29.12
2022-08-26T10:31:28.741Z,29.20
2022-08-26T10:34:00.188Z,29.31
2022-08-26T10:37:13.522Z,29.43
2022-08-26T10:40:01.148Z,29.54
2022-08-26T10:42:51.777Z,29.60
2022-08-26T10:45:28.093Z,29.62
2022-08-26T10:48:08.246Z,29.71
2022-08-26T10:50:44.621Z,29.78
2022-08-26T10:53:44.313Z,29.84
2022-08-26T10:57:01.974Z,29.87
2022-08-26T11:00:27.557Z,29.92
2022-08-26T11:03:28.940Z,29.86
2022-08-26T11:06:19.657Z,29.74
2022-08-26T11:08:54.222Z,29.70
2022-08-26T11:11:42.212Z,29.67
2022-08-26T11:14:28.670Z,29.73
2022-08-26T11:17:04.339Z,29.75
2022-08-26T11:20:01.531Z,29.79
2022-08-26T11:22:47.668Z,29.91
2022-08-26T11:25:30.070Z,29.98
2022-08-26T11:28:01.493Z,29.93
2022-08-26T11:30:43.115Z,29.89
2022-08-26T11:33:48.104Z,29.89
2022-08-26T11:36:55.306Z,29.81
2022-08-26T11:39:36.967Z,29.82
2022-08-26T11:42:43.876Z,29.89
2022-08-26T11:45:41.533Z,29.85
2022-08-26T11:48:31.836Z,29.83
2022-08-26T11:51:14.342Z,29.89
2022-08-26T11:53:47.203Z,29.95
2022-08-26T11:56:36.222Z,30.03
2022-08-26T11:59:11.332Z,30.14
2022-08-26T12:01:50.478Z,30.12
2022-08-26T12:04:41.589Z,30.21
2022-08-26T12:07:10.885Z,30.26
2022-08-26T12:10:02.241Z,30.18
2022-08-26T12:12:39.121Z,30.19
2022-08-26T12:15:19.830Z,30.30
2022-08-26T12:17:54.458Z,30.41
2022-08-26T12:20:49.455Z,30.46
2022-08-26T12:23:28.598Z,30.50
2022-08-26T12:26:24.282Z,30.48
2022-08-26T12:29:20.097Z,30.44
2022-08-26T12:32:18.746Z,30.40
2022-08-26T12:34:49.531Z,30.42
2022-08-26T12:37:19.279Z,30.49
2022-08-26T12:39:49.692Z,30.50
2022-08-26T12:42:18.702Z,30.55
2022-08-26T12:45:07.099Z,30.60
2022-08-26T12:47:43.517Z,30.60
2022-08-26T12:50:46.714Z,30.53
2022-08-26T12:53:26.426Z,30.61
2022-08-26T12:55:59.633Z,30.62
2022-08-26T12:58:30.726Z,30.68
2022-08-26T13:01:22.954Z,30.73
2022-08-26T13:03:53.453Z,30.75
2022-08-26T13:06:32.278Z,30.77
2022-08-26T13:09:10.388Z,30.65
2022-08-26T13:11:46.041Z,30.63
2022-08-26T13:14:24.037Z,30.65
2022-08-26T13:16:54.426Z,30.59
2022-08-26T13:19:26.604Z,30.56
2022-08-26T13:21:59.442Z,30.54
2022-08-26T13:24:40.546Z,30.56
2022-08-26T13:27:14.993Z,30.54
2022-08-26T13:29:44.121Z,30.59
2022-08-26T13:32:15.447Z,30.64
2022-08-26T13:34:51.275Z,30.67
2022-08-26T13:37:24.385Z,30.63
2022-08-26T13:40:08.120Z,30.66
2022-08-26T13:42:37.184Z,30.62
2022-08-26T13:45:19.733Z,30.60
2022-08-26T13:47:48.797Z,30.58
2022-08-26T13:50:18.463Z,30.55
2022-08-26T13:52:47.864Z,30.54
2022-08-26T13:55:17.062Z,30.59
2022-08-26T13:57:46.393Z,30.65
2022-08-26T14:00:19.096Z,30.69
2022-08-26T14:02:49.024Z,30.75
2022-08-26T14:05:18.400Z,30.73
2022-08-26T14:07:47.893Z,30.64
2022-08-26T14:10:17.130Z,30.54
2022-08-26T14:12:46.477Z,30.54
2022-08-26T14:15:18.464Z,30.56
2022-08-26T14:17:49.709Z,30.59
2022-08-26T14:20:28.035Z,30.62
2022-08-26T14:23:13.307Z,30.63
2022-08-26T14:25:44.333Z,30.56
2022-08-26T14:28:13.765Z,30.57
2022-08-26T14:30:45.094Z,30.56
2022-08-26T14:33:17.128Z,30.55
2022-08-26T14:35:49.019Z,30.52
2022-08-26T14:38:19.427Z,30.53
2022-08-26T14:40:48.915Z,30.59
2022-08-26T14:43:18.221Z,30.57
2022-08-26T14:45:48.577Z,30.53
2022-08-26T14:48:17.759Z,30.51
2022-08-26T14:50:47.348Z,30.50
2022-08-26T14:53:36.319Z,30.49
2022-08-26T14:56:06.298Z,30.43
2022-08-26T14:58:35.384Z,30.42
2022-08-26T15:01:04.973Z,30.44
2022-08-26T15:03:34.705Z,30.42
2022-08-26T15:06:05.010Z,30.44
2022-08-26T15:08:37.248Z,30.45
2022-08-26T15:11:06.841Z,30.46
2022-08-26T15:13:36.360Z,30.45
2022-08-26T15:16:08.910Z,30.42
2022-08-26T15:18:38.526Z,30.40
2022-08-26T15:21:08.698Z,30.39
2022-08-26T15:23:39.763Z,30.39
2022-08-26T15:26:12.525Z,30.33
2022-08-26T15:28:43.302Z,30.28
2022-08-26T15:31:12.875Z,30.27
2022-08-26T15:33:43.237Z,30.25
2022-08-26T15:36:12.731Z,30.24
2022-08-26T15:38:43.217Z,30.15
2022-08-26T15:41:12.347Z,30.13
2022-08-26T15:43:41.587Z,30.13
2022-08-26T15:46:14.459Z,30.10
2022-08-26T15:48:44.137Z,30.03
2022-08-26T15:51:35.941Z,29.97
2022-08-26T15:54:24.114Z,29.92
2022-08-26T15:56:53.613Z,29.83
2022-08-26T15:59:23.203Z,29.81
2022-08-26T16:01:53.428Z,29.81
2022-08-26T16:04:22.582Z,29.78
2022-08-26T16:06:52.683Z,29.79
2022-08-26T16:09:27.953Z,29.79
2022-08-26T16:12:00.313Z,29.73
2022-08-26T16:14:29.510Z,29.65
2022-08-26T16:16:58.761Z,29.57
2022-08-26T16:19:28.136Z,29.49
2022-08-26T16:21:57.463Z,29.40
2022-08-26T16:24:30.380Z,29.33
2022-08-26T16:27:03.239Z,29.26
2022-08-26T16:29:33.420Z,29.21
2022-08-26T16:32:09.085Z,29.16
2022-08-26T16:34:38.190Z,29.08
2022-08-26T16:37:28.750Z,28.99
2022-08-26T16:39:58.090Z,28.95
2022-08-26T16:42:28.486Z,28.91
2022-08-26T16:45:00.765Z,28.82
2022-08-26T16:47:29.914Z,28.74
2022-08-26T16:49:59.415Z,28.66
2022-08-26T16:52:31.371Z,28.60
2022-08-26T16:55:00.763Z,28.49
2022-08-26T16:57:29.965Z,28.35
2022-08-26T16:59:59.474Z,28.27
2022-08-26T17:02:33.483Z,28.22
2022-08-26T17:05:03.058Z,28.11
2022-08-26T17:07:36.614Z,28.00
2022-08-26T17:10:09.724Z,27.91
2022-08-26T17:12:40.689Z,27.81
2022-08-26T17:15:11.233Z,27.70
2022-08-26T17:17:41.271Z,27.59
2022-08-26T17:20:20.093Z,27.47
2022-08-26T17:22:52.161Z,27.35
2022-08-26T17:25:28.896Z,27.18
2022-08-26T17:27:59.353Z,27.03
2022-08-26T17:30:28.452Z,26.81
2022-08-26T17:33:00.491Z,26.64
2022-08-26T17:35:29.783Z,26.39
2022-08-26T17:38:00.618Z,26.18
2022-08-26T17:40:31.012Z,26.05
2022-08-26T17:43:00.835Z,25.96
2022-08-26T17:45:29.857Z,25.85
2022-08-26T17:47:59.206Z,25.75
2022-08-26T17:50:28.578Z,25.64
2022-08-26T17:52:57.530Z,25.57
2022-08-26T17:55:26.646Z,25.52
2022-08-26T17:57:55.949Z,25.40
2022-08-26T18:00:28.400Z,25.29
2022-08-26T18:03:00.749Z,25.19
2022-08-26T18:05:30.616Z,24.96
2022-08-26T18:08:00.716Z,24.78
2022-08-26T18:10:29.758Z,24.69
2022-08-26T18:12:58.842Z,24.54
2022-08-26T18:15:28.366Z,24.42
2022-08-26T18:17:57.407Z,24.33
2022-08-26T18:20:26.946Z,24.25
2022-08-26T18:22:56.124Z,24.17
2022-08-26T18:25:25.124Z,24.11
2022-08-26T18:27:54.239Z,24.12
2022-08-26T18:30:23.520Z,24.10
2022-08-26T18:32:53.728Z,24.02
2022-08-26T18:35:22.728Z,23.93
2022-08-26T18:37:51.638Z,23.89
2022-08-26T18:40:21.873Z,23.85
2022-08-26T18:42:53.712Z,23.84
2022-08-26T18:45:23.417Z,23.78
2022-08-26T18:47:52.813Z,23.74
2022-08-26T18:50:22.227Z,23.63
2022-08-26T18:52:55.374Z,23.60
2022-08-26T18:55:24.507Z,23.52
2022-08-26T18:57:53.664Z,23.47
2022-08-26T19:00:23.121Z,23.43
2022-08-26T19:02:55.719Z,23.38
2022-08-26T19:05:26.110Z,23.29
2022-08-26T19:07:55.927Z,23.21
2022-08-26T19:10:25.305Z,23.08
2022-08-26T19:12:57.427Z,22.94
2022-08-26T19:15:29.967Z,22.90
2022-08-26T19:17:59.695Z,22.92
2022-08-26T19:20:28.674Z,22.89
2022-08-26T19:23:02.621Z,22.96
2022-08-26T19:25:46.230Z,23.09
2022-08-26T19:28:41.316Z,23.09
2022-08-26T19:31:13.044Z,23.03
2022-08-26T19:33:45.495Z,23.02
2022-08-26T19:36:22.262Z,23.02
2022-08-26T19:38:57.105Z,22.92
2022-08-26T19:41:36.998Z,22.89
2022-08-26T19:44:36.424Z,22.78
2022-08-26T19:47:09.405Z,22.81
2022-08-26T19:49:39.644Z,22.74
2022-08-26T19:52:08.942Z,22.63
2022-08-26T19:54:38.394Z,22.48
2022-08-26T19:57:07.955Z,22.36
2022-08-26T19:59:41.970Z,22.37
2022-08-26T20:02:12.543Z,22.33
2022-08-26T20:04:42.517Z,22.18
2022-08-26T20:07:15.345Z,22.17
2022-08-26T20:09:49.389Z,22.14
2022-08-26T20:12:19.324Z,22.11
2022-08-26T20:14:48.841Z,22.09
2022-08-26T20:17:18.165Z,22.01
2022-08-26T20:20:05.771Z,21.90
2022-08-26T20:23:09.454Z,21.65
2022-08-26T20:25:38.773Z,21.58
2022-08-26T20:28:08.074Z,21.55
2022-08-26T20:30:37.377Z,21.54
2022-08-26T20:33:07.329Z,21.53
2022-08-26T20:35:36.743Z,21.48
2022-08-26T20:38:06.447Z,21.38
2022-08-26T20:40:36.360Z,21.31
2022-08-26T20:43:06.825Z,21.23
2022-08-26T20:45:36.460Z,21.10
2022-08-26T20:48:05.603Z,21.03
2022-08-26T20:50:34.786Z,20.97
2022-08-26T20:53:04.143Z,20.87
2022-08-26T20:55:34.512Z,20.78
2022-08-26T20:58:03.747Z,20.74
2022-08-26T21:00:33.433Z,20.68
2022-08-26T21:03:02.719Z,20.72
2022-08-26T21:05:31.708Z,20.71
2022-08-26T21:08:00.809Z,20.67
2022-08-26T21:10:31.046Z,20.54
2022-08-26T21:13:01.493Z,20.45
2022-08-26T21:15:30.827Z,20.34
2022-08-26T21:18:01.928Z,20.25
2022-08-26T21:20:33.077Z,20.18
2022-08-26T21:23:02.274Z,20.23
2022-08-26T21:25:31.577Z,20.26
2022-08-26T21:28:00.761Z,20.22
2022-08-26T21:30:30.321Z,20.16
2022-08-26T21:32:59.629Z,20.06
2022-08-26T21:35:29.023Z,19.99
2022-08-26T21:37:58.189Z,19.82
2022-08-26T21:40:28.473Z,19.68
2022-08-26T21:42:57.941Z,19.49
2022-08-26T21:45:26.918Z,19.37
2022-08-26T21:47:56.155Z,19.18
2022-08-26T21:50:25.578Z,19.03
2022-08-26T21:52:54.849Z,18.77
2022-08-26T21:55:24.049Z,18.71
2022-08-26T21:57:53.407Z,18.67
